Time;durP1;ratioP1;P1;durP2;ratioP2;P2;SDS_P1;SDS_P2;PMS_P1;PMS_P2;Temp;Humidity;BMP_temperature;BMP_pressure;BME280_temperature;BME280_humidity;BME280_pressure;Samples;Min_cycle;Max_cycle;Signal;HPM_P1;HPM_P2
2021/09/22 00:00:45;;;;;;;2.01;1.09;;;;;;;7.89;69.46;99815.09;357944;146;866694;-62
2021/09/22 00:01:47;;;;;;;1.23;1.01;;;;;;;7.95;69.46;99816.80;362280;147;857150;-61
2021/09/22 00:02:49;;;;;;;1.64;1.11;;;;;;;8.00;69.22;99812.53;360207;146;857145;-61
2021/09/22 00:03:51;;;;;;;1.17;1.07;;;;;;;8.01;68.94;99814.25;359896;146;864815;-60
2021/09/22 00:04:52;;;;;;;1.74;1.16;;;;;;;7.95;68.81;99809.06;360184;146;857788;-60
2021/09/22 00:05:54;;;;;;;1.57;1.25;;;;;;;7.94;68.90;99808.22;359852;146;864910;-60
2021/09/22 00:06:56;;;;;;;2.59;1.05;;;;;;;;;;361014;146;866029;-58
2021/09/22 00:07:58;;;;;;;2.12;1.36;;;;;;;;;;359484;147;859442;-59
2021/09/22 00:09:00;;;;;;;1.81;1.07;;;;;;;;;;361536;147;864456;-59
2021/09/22 00:10:01;;;;;;;2.94;1.24;;;;;;;;;;359312;146;857296;-62
2021/09/22 00:11:03;;;;;;;2.39;1.40;;;;;;;;;;359028;146;864456;-59
2021/09/22 00:12:04;;;;;;;1.38;1.16;;;;;;;;;;359726;146;857159;-58
2021/09/22 00:13:06;;;;;;;1.51;1.16;;;;;;;;;;361085;146;857323;-59
2021/09/22 00:14:08;;;;;;;4.09;1.39;;;;;;;;;;359886;146;865311;-60
2021/09/22 00:15:10;;;;;;;1.82;1.36;;;;;;;;;;360119;146;858352;-60
2021/09/22 00:16:12;;;;;;;1.74;1.54;;;;;;;;;;359316;146;858289;-60
2021/09/22 00:17:14;;;;;;;2.36;1.46;;;;;;;;;;359422;146;858592;-60
2021/09/22 00:18:16;;;;;;;1.31;1.16;;;;;;;;;;360583;146;864988;-60
2021/09/22 00:19:17;;;;;;;2.13;1.49;;;;;;;;;;359936;146;864697;-60
2021/09/22 00:20:23;;;;;;;1.91;1.45;;;;;;;;;;359610;146;864849;-60
2021/09/22 00:21:23;;;;;;;2.86;1.29;;;;;;;;;;361994;146;857292;-60
2021/09/22 00:22:25;;;;;;;2.29;1.46;;;;;;;;;;358030;147;865510;-60
2021/09/22 00:23:26;;;;;;;1.43;1.29;;;;;;;;;;361199;146;864884;-60
2021/09/22 00:24:28;;;;;;;2.99;1.52;;;;;;;;;;359816;147;857368;-60
2021/09/22 00:25:32;;;;;;;1.70;1.59;;;;;;;;;;360127;148;860783;-58
2021/09/22 00:26:33;;;;;;;2.14;1.47;;;;;;;;;;359428;146;858097;-59
2021/09/22 00:27:35;;;;;;;1.49;1.36;;;;;;;;;;361273;147;864778;-60
2021/09/22 00:28:36;;;;;;;3.38;1.32;;;;;;;;;;361395;147;866568;-60
2021/09/22 00:29:38;;;;;;;1.67;1.39;;;;;;;;;;359909;147;858501;-60
2021/09/22 00:30:41;;;;;;;1.62;1.42;;;;;;;;;;359704;146;859489;-60
2021/09/22 00:31:43;;;;;;;4.21;1.47;;;;;;;;;;358887;146;857772;-61
2021/09/22 00:32:49;;;;;;;1.26;1.15;;;;;;;;;;360222;146;866132;-60
2021/09/22 00:33:50;;;;;;;1.72;1.38;;;;;;;;;;358793;146;857120;-60
2021/09/22 00:34:52;;;;;;;3.80;1.54;;;;;;;;;;360273;146;857783;-61
2021/09/22 00:35:54;;;;;;;4.34;1.66;;;;;;;;;;360470;146;866741;-61
2021/09/22 00:36:55;;;;;;;2.31;1.39;;;;;;;;;;359302;147;865205;-60
2021/09/22 00:37:57;;;;;;;2.04;1.40;;;;;;;;;;361479;147;865445;-60
2021/09/22 00:38:58;;;;;;;1.80;1.36;;;;;;;;;;361749;148;865692;-60
2021/09/22 00:40:00;;;;;;;2.31;1.54;;;;;;;;;;360044;147;865176;-60
2021/09/22 00:41:02;;;;;;;2.59;1.43;;;;;;;;;;361604;147;858935;-60
2021/09/22 00:42:04;;;;;;;4.14;2.01;;;;;;;;;;361611;146;857180;-60
2021/09/22 00:43:05;;;;;;;1.63;1.53;;;;;;;;;;361661;148;857227;-60
2021/09/22 00:44:07;;;;;;;1.89;1.49;;;;;;;;;;362398;147;858029;-60
2021/09/22 00:45:09;;;;;;;1.73;1.46;;;;;;;;;;361560;147;867474;-60
2021/09/22 00:46:11;;;;;;;1.93;1.56;;;;;;;;;;363166;147;865714;-60
2021/09/22 00:47:13;;;;;;;2.94;1.80;;;;;;;;;;359072;146;865872;-60
2021/09/22 00:48:15;;;;;;;3.68;1.45;;;;;;;;;;359676;146;857268;-60
2021/09/22 00:49:16;;;;;;;1.74;1.31;;;;;;;;;;361004;146;857375;-60
2021/09/22 00:50:19;;;;;;;1.74;1.46;;;;;;;;;;362085;148;861397;-60
2021/09/22 00:51:21;;;;;;;2.40;1.38;;;;;;;;;;359079;146;858238;-60
2021/09/22 00:52:22;;;;;;;1.84;1.57;;;;;;;;;;358986;146;858813;-61
2021/09/22 00:53:24;;;;;;;1.72;1.41;;;;;;;;;;359373;146;857383;-61
2021/09/22 00:54:25;;;;;;;2.06;1.39;;;;;;;;;;359357;145;864797;-60
2021/09/22 00:55:27;;;;;;;1.76;1.50;;;;;;;;;;360752;146;857771;-61
2021/09/22 00:56:29;;;;;;;2.29;1.51;;;;;;;;;;362944;145;857304;-61
2021/09/22 00:57:31;;;;;;;4.14;1.66;;;;;;;;;;358624;145;857688;-60
2021/09/22 00:58:32;;;;;;;1.36;1.24;;;;;;;;;;359310;146;866063;-61
2021/09/22 00:59:34;;;;;;;3.47;1.55;;;;;;;;;;360243;146;858962;-60
2021/09/22 01:00:38;;;;;;;2.57;1.37;;;;;;;;;;360682;146;858595;-60
2021/09/22 01:01:39;;;;;;;1.95;1.58;;;;;;;;;;360379;145;858837;-60
2021/09/22 01:02:42;;;;;;;1.59;1.21;;;;;;;;;;360066;146;859673;-60
2021/09/22 01:03:43;;;;;;;1.87;1.21;;;;;;;;;;361709;146;864958;-60
2021/09/22 01:04:45;;;;;;;2.14;1.77;;;;;;;;;;359517;146;858286;-60
2021/09/22 01:05:47;;;;;;;1.51;1.40;;;;;;;;;;364866;147;857312;-60
2021/09/22 01:06:48;;;;;;;1.95;1.54;;;;;;;;;;360776;147;864699;-60
2021/09/22 01:07:50;;;;;;;3.85;1.44;;;;;;;;;;361070;147;864919;-60
2021/09/22 01:08:52;;;;;;;1.86;1.39;;;;;;;;;;357868;147;866612;-60
2021/09/22 01:09:54;;;;;;;1.78;1.14;;;;;;;;;;358379;147;865267;-60
2021/09/22 01:10:56;;;;;;;2.64;1.27;;;;;;;;;;361519;146;858961;-60
2021/09/22 01:11:57;;;;;;;2.64;1.21;;;;;;;;;;360252;146;857339;-60
2021/09/22 01:12:59;;;;;;;1.69;1.35;;;;;;;;;;359695;145;860271;-60
2021/09/22 01:14:01;;;;;;;1.71;1.24;;;;;;;;;;360441;146;858065;-60
2021/09/22 01:15:03;;;;;;;1.65;1.40;;;;;;;;;;360439;146;857326;-60
2021/09/22 01:16:06;;;;;;;1.56;1.25;;;;;;;;;;359888;146;857190;-61
2021/09/22 01:17:08;;;;;;;2.53;1.29;;;;;;;;;;359903;145;857649;-60
2021/09/22 01:18:12;;;;;;;1.38;1.24;;;;;;;;;;359412;146;858087;-60
2021/09/22 01:19:13;;;;;;;2.88;1.13;;;;;;;;;;359872;146;865316;-61
2021/09/22 01:20:17;;;;;;;1.61;1.38;;;;;;;;;;360154;146;859237;-60
2021/09/22 01:21:21;;;;;;;1.39;1.11;;;;;;;;;;359025;145;857579;-60
2021/09/22 01:22:23;;;;;;;1.25;1.15;;;;;;;;;;358987;146;859973;-61
2021/09/22 01:23:26;;;;;;;1.79;1.34;;;;;;;;;;360370;146;865680;-60
2021/09/22 01:24:27;;;;;;;1.37;1.21;;;;;;;;;;359804;146;864889;-60
2021/09/22 01:25:29;;;;;;;3.67;1.46;;;;;;;;;;359227;145;865179;-60
2021/09/22 01:26:31;;;;;;;2.63;0.98;;;;;;;;;;359633;146;857585;-60
2021/09/22 01:27:33;;;;;;;3.24;1.30;;;;;;;;;;359780;146;859350;-60
2021/09/22 01:28:34;;;;;;;2.28;1.40;;;;;;;;;;350785;146;858957;-60
2021/09/22 01:29:38;;;;;;;1.70;1.16;;;;;;;;;;347853;150;860830;-59
2021/09/22 01:30:40;;;;;;;1.49;1.14;;;;;;;;;;349156;150;858038;-60
2021/09/22 01:31:42;;;;;;;1.75;1.13;;;;;;;;;;353117;150;867031;-60
2021/09/22 01:32:48;;;;;;;2.72;1.25;;;;;;;;;;348072;151;857720;-60
2021/09/22 01:33:50;;;;;;;1.23;1.13;;;;;;;;;;342971;153;864975;-60
2021/09/22 01:34:52;;;;;;;3.00;1.37;;;;;;;;;;348931;150;858611;-60
2021/09/22 01:35:53;;;;;;;1.94;1.16;;;;;;;;;;344371;153;864932;-60
2021/09/22 01:36:55;;;;;;;2.56;1.25;;;;;;;;;;345258;153;857254;-60
2021/09/22 01:37:57;;;;;;;3.04;1.13;;;;;;;;;;348972;150;857281;-60
2021/09/22 01:38:58;;;;;;;1.48;1.11;;;;;;;;;;349247;150;856443;-60
2021/09/22 01:40:00;;;;;;;1.52;1.07;;;;;;;;;;348065;150;864878;-60
2021/09/22 01:41:03;;;;;;;1.14;1.03;;;;;;;;;;349107;150;865502;-60
2021/09/22 01:42:04;;;;;;;2.37;1.07;;;;;;;;;;349118;150;858007;-60
2021/09/22 01:43:06;;;;;;;1.76;1.09;;;;;;;;;;348070;150;857180;-60
2021/09/22 01:44:07;;;;;;;5.94;2.22;;;;;;;;;;349109;150;859064;-60
2021/09/22 01:45:10;;;;;;;1.57;1.11;;;;;;;;;;348172;150;857580;-60
2021/09/22 01:46:13;;;;;;;1.38;1.19;;;;;;;;;;348725;150;859199;-60
2021/09/22 01:47:14;;;;;;;1.42;1.20;;;;;;;;;;348936;150;858637;-60
2021/09/22 01:48:16;;;;;;;2.46;1.07;;;;;;;;;;346556;153;857263;-60
2021/09/22 01:49:21;;;;;;;1.06;0.91;;;;;;;;;;346170;153;857320;-60
2021/09/22 01:50:23;;;;;;;1.62;1.26;;;;;;;;;;345607;153;864758;-60
2021/09/22 01:51:25;;;;;;;1.30;0.96;;;;;;;;;;346422;153;859206;-60
2021/09/22 01:52:27;;;;;;;1.59;1.15;;;;;;;;;;346160;153;864919;-60
2021/09/22 01:53:28;;;;;;;1.91;1.10;;;;;;;;;;346568;153;859984;-60
2021/09/22 01:54:30;;;;;;;1.23;1.11;;;;;;;;;;345322;153;857596;-60
2021/09/22 01:55:31;;;;;;;1.38;1.01;;;;;;;;;;346036;153;859366;-60
2021/09/22 01:56:34;;;;;;;2.35;1.08;;;;;;;;;;346554;153;865934;-59
2021/09/22 01:57:35;;;;;;;2.14;1.00;;;;;;;;;;345770;153;858752;-60
2021/09/22 01:58:37;;;;;;;1.43;1.13;;;;;;;;;;346606;153;857310;-60
2021/09/22 01:59:39;;;;;;;1.28;1.03;;;;;;;;;;346229;153;864883;-59
2021/09/22 02:00:42;;;;;;;1.86;1.21;;;;;;;;;;345476;153;857700;-60
2021/09/22 02:01:44;;;;;;;1.10;1.00;;;;;;;;;;346026;153;857956;-60
2021/09/22 02:02:45;;;;;;;1.41;1.22;;;;;;;;;;345763;153;865226;-60
2021/09/22 02:03:47;;;;;;;1.54;1.10;;;;;;;;;;346336;153;859317;-60
2021/09/22 02:04:49;;;;;;;1.85;1.21;;;;;;;;;;346659;153;856090;-60
2021/09/22 02:05:51;;;;;;;3.02;1.28;;;;;;;;;;345894;153;857771;-60
2021/09/22 02:06:52;;;;;;;1.46;1.00;;;;;;;;;;346256;154;862608;-60
2021/09/22 02:07:54;;;;;;;2.21;1.19;;;;;;;;;;344703;153;859922;-60
2021/09/22 02:08:56;;;;;;;1.31;0.97;;;;;;;;;;344281;153;866045;-60
2021/09/22 02:10:00;;;;;;;1.17;1.06;;;;;;;;;;345866;153;865440;-59
2021/09/22 02:11:02;;;;;;;0.96;0.93;;;;;;;;;;345799;153;865026;-60
2021/09/22 02:12:03;;;;;;;1.13;1.00;;;;;;;;;;346660;153;857263;-60
2021/09/22 02:13:05;;;;;;;1.50;0.96;;;;;;;;;;345546;153;866527;-60
2021/09/22 02:14:07;;;;;;;5.57;1.34;;;;;;;;;;346392;153;865431;-60
2021/09/22 02:15:09;;;;;;;1.85;0.94;;;;;;;;;;346408;153;864908;-61
2021/09/22 02:16:12;;;;;;;1.58;1.10;;;;;;;;;;347018;153;858334;-60
2021/09/22 02:17:14;;;;;;;3.37;1.29;;;;;;;;;;345800;153;857814;-61
2021/09/22 02:18:15;;;;;;;1.50;1.10;;;;;;;;;;344428;154;865857;-60
2021/09/22 02:19:17;;;;;;;1.24;1.14;;;;;;;;;;344991;153;864913;-61
2021/09/22 02:20:19;;;;;;;1.75;1.25;;;;;;;;;;345446;153;857157;-61
2021/09/22 02:21:21;;;;;;;1.88;1.16;;;;;;;;;;344746;153;857896;-61
2021/09/22 02:22:22;;;;;;;2.16;1.01;;;;;;;;;;344917;156;857354;-60
2021/09/22 02:23:24;;;;;;;2.09;1.10;;;;;;;;;;346555;153;859290;-60
